GRZ513 Details

Departure: Juneau International Airport (PAJN)
Arrival: Sitka Rocky Gutierrez Airport (PASI) at N/A
Route: RODMN1 RODMN
Notes:


Current Weather Information
PAJN 171737Z 29008KT 10SM -RA FEW004 FEW013 OVC075 13/12 A2976 RMK AO2 VIS HYR N P0007 T01330122
PASI 171653Z 18005KT 3SM BR BKN005 OVC014 14/13 A2976 RMK AO2 RAE33 SLP077 P0004 T01440133